ZMUB/ULN METAR and TAF weather

Enter ICAO airport designator
Station Type Date Time Source
ZMUB METAR 2021/05/14 14:00 UTC NOAA

ZMUB 141400Z 28002MPS CAVOK 01/M07 Q1019 NOSIG RMK QFE656.8 52


Station Type Date Time Source
ZMUB Decoded METAR 2021/05/14 14:00 UTC NOAA

Ulan-Bator, Mongolia (ZMUB) 47-51N 106-46E
May 14, 2021 - 10:00 AM EDT / 2021.05.14 1400 UTC
Wind: from the W (280 degrees) at 4 MPH (4 KT):0
Visibility: greater than 7 mile(s):0
Temperature: 33 F (1 C)
Dew Point: 19 F (-7 C)
Relative Humidity: 55%
Pressure (altimeter): 30.09 in. Hg (1019 hPa)
ob: ZMUB 141400Z 28002MPS CAVOK 01/M07 Q1019 NOSIG RMK QFE656.8 52
cycle: 14

Station Type Date Time Source
ZMUB TAF 2021/05/14 12:36 UTC NOAA

TAF TAF ZMUB 141031Z 1412/1518 VRB02MPS 9999 SCT033 TNM05/1422Z TX17/1506Z

Example: see airport list